createdAt,value
2022-08-17T00:01:32.029Z,98.34
2022-08-17T00:04:40.028Z,97.74
2022-08-17T00:07:29.380Z,97.91
2022-08-17T00:10:18.893Z,97.71
2022-08-17T00:13:21.931Z,98.33
2022-08-17T00:16:13.887Z,97.88
2022-08-17T00:19:08.644Z,98.45
2022-08-17T00:22:32.892Z,97.53
2022-08-17T00:25:18.005Z,97.81
2022-08-17T00:28:08.513Z,98.00
2022-08-17T00:30:58.959Z,98.43
2022-08-17T00:33:48.497Z,98.65
2022-08-17T00:36:38.214Z,98.70
2022-08-17T00:39:28.037Z,98.45
2022-08-17T00:42:20.019Z,97.87
2022-08-17T00:45:11.793Z,98.33
2022-08-17T00:48:01.130Z,97.58
2022-08-17T00:51:07.344Z,97.82
2022-08-17T00:54:20.403Z,98.19
2022-08-17T00:57:21.538Z,98.60
2022-08-17T01:00:19.853Z,98.94
2022-08-17T01:03:15.366Z,99.16
2022-08-17T01:06:07.152Z,99.81
2022-08-17T01:08:59.400Z,99.71
2022-08-17T01:11:54.002Z,100.00
2022-08-17T01:14:43.510Z,100.00
2022-08-17T01:17:34.456Z,100.00
2022-08-17T01:20:25.053Z,100.00
2022-08-17T01:23:20.845Z,100.00
2022-08-17T01:26:10.855Z,100.00
2022-08-17T01:29:01.957Z,100.00
2022-08-17T01:31:57.034Z,100.00
2022-08-17T01:34:50.518Z,100.00
2022-08-17T01:37:43.630Z,100.00
2022-08-17T01:40:33.905Z,100.00
2022-08-17T01:43:37.387Z,100.00
2022-08-17T01:46:30.418Z,100.00
2022-08-17T01:49:21.020Z,100.00
2022-08-17T01:52:12.658Z,100.00
2022-08-17T01:55:02.747Z,100.00
2022-08-17T01:57:52.216Z,100.00
2022-08-17T02:00:59.425Z,100.00
2022-08-17T02:03:59.376Z,100.00
2022-08-17T02:06:53.170Z,100.00
2022-08-17T02:09:45.080Z,100.00
2022-08-17T02:12:42.197Z,100.00
2022-08-17T02:15:31.806Z,99.99
2022-08-17T02:18:21.722Z,100.00
2022-08-17T02:21:11.773Z,99.94
2022-08-17T02:24:01.267Z,99.97
2022-08-17T02:26:50.549Z,100.00
2022-08-17T02:29:40.489Z,100.00
2022-08-17T02:32:29.784Z,100.00
2022-08-17T02:35:20.076Z,100.00
2022-08-17T02:38:11.938Z,100.00
2022-08-17T02:41:01.890Z,100.00
2022-08-17T02:43:51.259Z,100.00
2022-08-17T02:46:41.072Z,100.00
2022-08-17T02:49:30.505Z,100.00
2022-08-17T02:52:43.238Z,100.00
2022-08-17T02:55:33.700Z,99.53
2022-08-17T02:58:34.567Z,99.51
2022-08-17T03:01:25.131Z,98.99
2022-08-17T03:04:15.275Z,99.44
2022-08-17T03:07:06.110Z,99.95
2022-08-17T03:09:56.901Z,98.11
2022-08-17T03:12:48.691Z,98.23
2022-08-17T03:15:40.798Z,97.51
2022-08-17T03:18:33.990Z,96.85
2022-08-17T03:21:23.477Z,97.45
2022-08-17T03:24:12.892Z,97.29
2022-08-17T03:27:02.384Z,96.98
2022-08-17T03:29:51.722Z,97.03
2022-08-17T03:32:53.527Z,94.76
2022-08-17T03:35:43.037Z,96.18
2022-08-17T03:38:39.176Z,95.42
2022-08-17T03:41:29.487Z,93.62
2022-08-17T03:44:20.153Z,93.52
2022-08-17T03:47:28.191Z,94.10
2022-08-17T03:50:55.955Z,93.11
2022-08-17T03:54:16.617Z,92.30
2022-08-17T03:57:10.330Z,92.83
2022-08-17T04:00:01.207Z,94.05
2022-08-17T04:03:01.212Z,92.85
2022-08-17T04:05:51.031Z,93.67
2022-08-17T04:08:40.962Z,92.96
2022-08-17T04:11:30.276Z,92.23
2022-08-17T04:14:20.511Z,90.96
2022-08-17T04:17:10.068Z,88.44
2022-08-17T04:19:59.808Z,88.43
2022-08-17T04:23:13.525Z,89.14
2022-08-17T04:26:03.609Z,88.20
2022-08-17T04:28:53.343Z,87.01
2022-08-17T04:31:43.801Z,87.32
2022-08-17T04:34:34.873Z,84.96
2022-08-17T04:37:24.960Z,84.40
2022-08-17T04:40:41.249Z,85.89
2022-08-17T04:43:33.119Z,84.11
2022-08-17T04:46:25.792Z,84.27
2022-08-17T04:49:15.073Z,85.67
2022-08-17T04:52:04.914Z,85.29
2022-08-17T04:54:54.809Z,83.60
2022-08-17T04:57:45.217Z,83.14
2022-08-17T05:00:35.418Z,81.46
2022-08-17T05:03:25.471Z,80.21
2022-08-17T05:06:15.007Z,82.17
2022-08-17T05:09:07.030Z,80.48
2022-08-17T05:11:56.566Z,80.58
2022-08-17T05:14:46.493Z,80.03
2022-08-17T05:17:36.025Z,79.66
2022-08-17T05:20:29.373Z,79.77
2022-08-17T05:23:20.476Z,80.57
2022-08-17T05:26:13.558Z,79.01
2022-08-17T05:29:15.284Z,78.39
2022-08-17T05:32:39.479Z,78.86
2022-08-17T05:35:25.848Z,77.23
2022-08-17T05:38:16.820Z,79.76
2022-08-17T05:41:09.364Z,77.79
2022-08-17T05:43:58.334Z,78.50
2022-08-17T05:46:53.189Z,77.55
2022-08-17T05:49:42.911Z,79.71
2022-08-17T05:52:46.577Z,77.08
2022-08-17T05:56:30.291Z,77.75
2022-08-17T05:59:58.301Z,78.13
2022-08-17T06:03:31.971Z,77.04
2022-08-17T06:06:40.775Z,76.48
2022-08-17T06:09:53.733Z,77.75
2022-08-17T06:13:13.110Z,77.80
2022-08-17T06:16:28.172Z,75.70
2022-08-17T06:19:41.280Z,75.76
2022-08-17T06:22:37.702Z,74.37
2022-08-17T06:25:52.758Z,74.28
2022-08-17T06:29:21.542Z,74.19
2022-08-17T06:32:14.725Z,75.37
2022-08-17T06:35:06.479Z,74.84
2022-08-17T06:38:17.328Z,75.38
2022-08-17T06:42:05.100Z,74.34
2022-08-17T06:45:05.323Z,74.78
2022-08-17T06:48:00.123Z,74.90
2022-08-17T06:51:10.843Z,74.49
2022-08-17T06:54:08.774Z,73.78
2022-08-17T06:57:04.278Z,73.60
2022-08-17T07:00:01.335Z,74.66
2022-08-17T07:03:20.073Z,72.96
2022-08-17T07:06:19.805Z,73.79
2022-08-17T07:09:12.787Z,72.68
2022-08-17T07:12:04.958Z,72.28
2022-08-17T07:15:05.697Z,72.44
2022-08-17T07:17:55.421Z,73.29
2022-08-17T07:20:52.316Z,73.15
2022-08-17T07:24:02.903Z,72.32
2022-08-17T07:27:11.073Z,70.85
2022-08-17T07:30:10.857Z,71.53
2022-08-17T07:33:13.386Z,72.97
2022-08-17T07:36:03.632Z,71.14
2022-08-17T07:39:00.014Z,73.03
2022-08-17T07:41:57.967Z,73.76
2022-08-17T07:44:56.215Z,73.58
2022-08-17T07:48:15.746Z,75.71
2022-08-17T07:51:35.203Z,74.58
2022-08-17T07:54:34.087Z,74.11
2022-08-17T07:57:29.789Z,74.81
2022-08-17T08:00:29.203Z,71.40
2022-08-17T08:03:33.264Z,72.23
2022-08-17T08:06:27.394Z,73.81
2022-08-17T08:09:50.465Z,70.30
2022-08-17T08:12:39.620Z,71.28
2022-08-17T08:15:39.145Z,70.80
2022-08-17T08:18:38.649Z,71.81
2022-08-17T08:21:53.673Z,71.88
2022-08-17T08:25:12.448Z,72.79
2022-08-17T08:28:39.411Z,71.38
2022-08-17T08:31:28.997Z,73.02
2022-08-17T08:34:58.959Z,72.93
2022-08-17T08:37:51.010Z,72.28
2022-08-17T08:41:21.289Z,71.99
2022-08-17T08:45:00.243Z,74.13
2022-08-17T08:47:42.664Z,72.60
2022-08-17T08:50:43.742Z,73.53
2022-08-17T08:53:52.808Z,72.95
2022-08-17T08:57:21.469Z,73.74
2022-08-17T09:00:21.374Z,72.99
2022-08-17T09:03:52.807Z,74.00
2022-08-17T09:07:09.753Z,72.97
2022-08-17T09:10:18.382Z,75.34
2022-08-17T09:13:26.167Z,75.57
2022-08-17T09:16:31.078Z,73.79
2022-08-17T09:19:32.228Z,74.49
2022-08-17T09:22:43.969Z,74.87
2022-08-17T09:25:38.318Z,74.17
2022-08-17T09:28:37.479Z,73.96
2022-08-17T09:31:48.164Z,74.65
2022-08-17T09:34:50.942Z,72.84
2022-08-17T09:38:01.990Z,74.51
2022-08-17T09:41:17.447Z,73.74
2022-08-17T09:44:40.859Z,72.14
2022-08-17T09:47:43.269Z,71.83
2022-08-17T09:51:03.663Z,71.90
2022-08-17T09:54:01.832Z,71.67
2022-08-17T09:57:29.650Z,71.72
2022-08-17T10:00:26.820Z,70.78
2022-08-17T10:03:35.352Z,72.88
2022-08-17T10:06:31.994Z,72.32
2022-08-17T10:09:29.294Z,73.25
2022-08-17T10:12:30.212Z,75.51
2022-08-17T10:15:31.884Z,74.49
2022-08-17T10:18:33.281Z,75.16
2022-08-17T10:21:43.874Z,76.01
2022-08-17T10:25:23.881Z,75.42
2022-08-17T10:28:19.723Z,76.36
2022-08-17T10:34:48.703Z,78.14
2022-08-17T10:37:38.642Z,77.69
2022-08-17T10:41:02.615Z,78.39
2022-08-17T10:44:40.457Z,79.92
2022-08-17T10:48:05.039Z,78.89
2022-08-17T10:51:01.401Z,78.67
2022-08-17T10:53:52.355Z,79.18
2022-08-17T10:56:48.170Z,80.25
2022-08-17T10:59:37.696Z,81.60
2022-08-17T11:02:53.200Z,81.60
2022-08-17T11:05:55.061Z,81.38
2022-08-17T11:09:00.582Z,81.47
2022-08-17T11:12:28.016Z,82.33
2022-08-17T11:15:48.335Z,82.42
2022-08-17T11:18:38.068Z,82.38
2022-08-17T11:21:53.839Z,83.06
2022-08-17T11:24:49.229Z,83.25
2022-08-17T11:27:39.231Z,83.52
2022-08-17T11:31:00.767Z,81.84
2022-08-17T11:34:00.116Z,83.08
2022-08-17T11:37:07.935Z,83.49
2022-08-17T11:40:14.111Z,82.87
2022-08-17T11:43:45.273Z,83.18
2022-08-17T11:47:14.738Z,83.75
2022-08-17T11:50:46.110Z,82.31
2022-08-17T11:53:38.793Z,83.08
2022-08-17T11:56:37.068Z,82.10
2022-08-17T11:59:40.608Z,82.66
2022-08-17T12:02:33.064Z,83.89
2022-08-17T12:05:23.154Z,83.73
2022-08-17T12:08:19.030Z,84.45
2022-08-17T12:11:13.261Z,83.57
2022-08-17T12:14:03.423Z,84.82
2022-08-17T12:17:00.429Z,85.40
2022-08-17T12:19:50.148Z,83.31
2022-08-17T12:23:06.601Z,82.70
2022-08-17T12:25:59.305Z,83.16
2022-08-17T12:28:49.977Z,83.32
2022-08-17T12:31:50.006Z,82.74
2022-08-17T12:34:44.699Z,81.85
2022-08-17T12:37:37.882Z,82.71
2022-08-17T12:40:33.053Z,83.01
2022-08-17T12:43:27.788Z,82.02
2022-08-17T12:46:19.309Z,83.35
2022-08-17T12:49:25.064Z,82.76
2022-08-17T12:52:21.430Z,82.54
2022-08-17T12:55:26.853Z,82.59
2022-08-17T12:58:26.583Z,81.24
2022-08-17T13:01:18.687Z,81.99
2022-08-17T13:04:13.662Z,82.63
2022-08-17T13:07:03.109Z,79.24
2022-08-17T13:09:53.375Z,79.46
2022-08-17T13:12:43.193Z,80.16
2022-08-17T13:15:44.701Z,80.34
2022-08-17T13:18:50.553Z,80.22
2022-08-17T13:21:49.461Z,81.59
2022-08-17T13:24:39.112Z,82.61
2022-08-17T13:27:31.130Z,83.33
2022-08-17T13:30:29.296Z,83.14
2022-08-17T13:33:44.532Z,84.06
2022-08-17T13:36:34.979Z,85.23
2022-08-17T13:39:27.191Z,85.62
2022-08-17T13:42:31.822Z,85.56
2022-08-17T13:45:34.869Z,86.57
2022-08-17T13:48:34.917Z,87.37
2022-08-17T13:51:43.254Z,87.65
2022-08-17T13:54:35.387Z,88.70
2022-08-17T13:57:26.964Z,88.76
2022-08-17T14:00:33.135Z,89.43
2022-08-17T14:03:24.445Z,89.02
2022-08-17T14:06:14.647Z,89.97
2022-08-17T14:09:49.669Z,88.95
2022-08-17T14:12:42.240Z,89.65
2022-08-17T14:15:55.725Z,89.41
2022-08-17T14:18:56.218Z,89.92
2022-08-17T14:21:48.875Z,90.10
2022-08-17T14:24:44.883Z,90.74
2022-08-17T14:27:52.222Z,91.83
2022-08-17T14:30:44.483Z,91.33
2022-08-17T14:33:35.891Z,91.69
2022-08-17T14:36:25.589Z,92.02
2022-08-17T14:39:15.823Z,92.10
2022-08-17T14:42:05.876Z,93.33
2022-08-17T14:44:57.396Z,93.20
2022-08-17T14:47:47.915Z,94.27
2022-08-17T14:50:42.334Z,95.08
2022-08-17T14:53:32.329Z,94.74
2022-08-17T14:56:23.096Z,94.51
2022-08-17T14:59:12.642Z,95.26
2022-08-17T15:02:04.404Z,95.61
2022-08-17T15:04:54.299Z,96.51
2022-08-17T15:07:47.343Z,96.27
2022-08-17T15:10:37.621Z,96.27
2022-08-17T15:13:29.196Z,97.17
2022-08-17T15:16:18.922Z,97.01
2022-08-17T15:19:10.069Z,97.69
2022-08-17T15:21:59.673Z,97.78
2022-08-17T15:24:49.655Z,98.64
2022-08-17T15:27:39.667Z,98.80
2022-08-17T15:30:30.297Z,99.07
2022-08-17T15:33:25.088Z,99.83
2022-08-17T15:36:15.478Z,100.00
2022-08-17T15:39:05.311Z,100.00
2022-08-17T15:41:58.735Z,99.66
2022-08-17T15:44:49.252Z,99.80
2022-08-17T15:47:39.723Z,99.12
2022-08-17T15:50:29.190Z,100.00
2022-08-17T15:53:20.444Z,100.00
2022-08-17T15:56:10.747Z,100.00
2022-08-17T15:59:01.627Z,100.00
2022-08-17T16:03:01.492Z,100.00
2022-08-17T16:05:14.845Z,100.00
2022-08-17T16:08:07.609Z,100.00
2022-08-17T16:11:00.539Z,100.00
2022-08-17T16:13:55.035Z,100.00
2022-08-17T16:16:47.075Z,100.00
2022-08-17T16:19:37.836Z,100.00
2022-08-17T16:22:39.810Z,100.00
2022-08-17T16:25:38.900Z,100.00
2022-08-17T16:28:43.545Z,100.00
2022-08-17T16:31:33.463Z,100.00
2022-08-17T16:34:23.900Z,100.00
2022-08-17T16:37:14.658Z,100.00
2022-08-17T16:40:08.344Z,100.00
2022-08-17T16:42:58.330Z,100.00
2022-08-17T16:45:52.079Z,100.00
2022-08-17T16:48:41.905Z,100.00
2022-08-17T16:51:33.651Z,100.00
2022-08-17T16:54:23.333Z,100.00
2022-08-17T16:57:15.099Z,100.00
2022-08-17T17:00:12.725Z,100.00
2022-08-17T17:03:26.721Z,100.00
2022-08-17T17:06:37.420Z,100.00
2022-08-17T17:09:36.792Z,100.00
2022-08-17T17:12:59.573Z,100.00
2022-08-17T17:15:55.740Z,100.00
2022-08-17T17:19:06.969Z,100.00
2022-08-17T17:22:16.452Z,100.00
2022-08-17T17:25:28.477Z,100.00
2022-08-17T17:28:56.773Z,100.00
2022-08-17T17:31:57.425Z,100.00
2022-08-17T17:34:51.726Z,100.00
2022-08-17T17:37:45.827Z,100.00
2022-08-17T17:40:41.605Z,100.00
2022-08-17T17:43:39.663Z,100.00
2022-08-17T17:46:38.930Z,100.00
2022-08-17T17:49:34.179Z,100.00
2022-08-17T17:52:44.182Z,100.00
2022-08-17T17:55:42.327Z,100.00
2022-08-17T17:58:46.558Z,100.00
2022-08-17T18:01:54.703Z,100.00
2022-08-17T18:05:01.659Z,100.00
2022-08-17T18:08:15.648Z,100.00
2022-08-17T18:11:24.380Z,100.00
2022-08-17T18:14:37.330Z,100.00
2022-08-17T18:17:31.111Z,100.00
2022-08-17T18:20:36.035Z,100.00
2022-08-17T18:23:36.038Z,100.00
2022-08-17T18:26:34.658Z,100.00
2022-08-17T18:29:27.582Z,100.00
2022-08-17T18:32:34.111Z,100.00
2022-08-17T18:35:32.003Z,100.00
2022-08-17T18:38:28.668Z,100.00
2022-08-17T18:41:31.912Z,100.00
2022-08-17T18:44:36.647Z,100.00
2022-08-17T18:47:30.217Z,100.00
2022-08-17T18:50:30.604Z,100.00
2022-08-17T18:53:39.833Z,100.00
2022-08-17T18:56:35.061Z,100.00
2022-08-17T18:59:53.467Z,100.00
2022-08-17T19:02:59.643Z,100.00
2022-08-17T19:05:57.402Z,100.00
2022-08-17T19:08:47.836Z,100.00
2022-08-17T19:11:37.921Z,100.00
2022-08-17T19:14:30.789Z,100.00
2022-08-17T19:17:43.343Z,100.00
2022-08-17T19:20:47.852Z,100.00
2022-08-17T19:24:14.269Z,100.00
2022-08-17T19:27:13.456Z,100.00
2022-08-17T19:30:12.908Z,100.00
2022-08-17T19:33:03.495Z,100.00
2022-08-17T19:36:19.749Z,100.00
2022-08-17T19:39:39.257Z,100.00
2022-08-17T19:42:38.735Z,100.00
2022-08-17T19:46:14.692Z,100.00
2022-08-17T19:49:41.899Z,100.00
2022-08-17T19:52:51.380Z,100.00
2022-08-17T19:56:22.332Z,100.00
2022-08-17T19:59:36.138Z,100.00
2022-08-17T20:02:48.011Z,100.00
2022-08-17T20:06:09.149Z,100.00
2022-08-17T20:08:59.885Z,100.00
2022-08-17T20:12:00.093Z,100.00
2022-08-17T20:15:12.393Z,100.00
2022-08-17T20:18:07.609Z,100.00
2022-08-17T20:21:20.204Z,100.00
2022-08-17T20:24:25.193Z,100.00
2022-08-17T20:27:20.520Z,100.00
2022-08-17T20:30:34.037Z,100.00
2022-08-17T20:33:38.467Z,100.00
2022-08-17T20:36:28.197Z,100.00
2022-08-17T20:39:37.086Z,100.00
2022-08-17T20:42:28.219Z,100.00
2022-08-17T20:45:26.432Z,100.00
2022-08-17T20:48:36.846Z,100.00
2022-08-17T20:51:33.392Z,100.00
2022-08-17T20:54:43.305Z,100.00
2022-08-17T20:57:32.956Z,100.00
2022-08-17T21:00:31.819Z,100.00
2022-08-17T21:03:24.379Z,100.00
2022-08-17T21:06:17.649Z,100.00
2022-08-17T21:09:31.479Z,100.00
2022-08-17T21:12:59.054Z,100.00
2022-08-17T21:16:07.835Z,100.00
2022-08-17T21:19:22.208Z,100.00
2022-08-17T21:22:36.780Z,100.00
2022-08-17T21:25:53.402Z,100.00
2022-08-17T21:29:14.718Z,100.00
2022-08-17T21:32:30.092Z,100.00
2022-08-17T21:35:30.233Z,100.00
2022-08-17T21:38:24.455Z,100.00
2022-08-17T21:41:49.252Z,100.00
2022-08-17T21:44:43.496Z,100.00
2022-08-17T21:47:33.891Z,100.00
2022-08-17T21:50:26.270Z,100.00
2022-08-17T21:53:49.077Z,100.00
2022-08-17T21:56:42.087Z,100.00
2022-08-17T21:59:41.054Z,100.00
2022-08-17T22:02:36.081Z,100.00
2022-08-17T22:05:37.852Z,100.00
2022-08-17T22:08:27.574Z,100.00
2022-08-17T22:11:18.347Z,100.00
2022-08-17T22:14:19.182Z,100.00
2022-08-17T22:17:21.910Z,100.00
2022-08-17T22:20:18.806Z,100.00
2022-08-17T22:23:32.893Z,100.00
2022-08-17T22:26:26.595Z,100.00
2022-08-17T22:29:43.839Z,100.00
2022-08-17T22:32:44.068Z,100.00
2022-08-17T22:35:44.800Z,100.00
2022-08-17T22:38:35.422Z,100.00
2022-08-17T22:41:37.434Z,100.00
2022-08-17T22:44:35.244Z,100.00
2022-08-17T22:47:42.463Z,100.00
2022-08-17T22:50:36.587Z,100.00
2022-08-17T22:53:45.481Z,100.00
2022-08-17T22:56:54.258Z,100.00
2022-08-17T22:59:54.777Z,100.00
2022-08-17T23:03:12.504Z,100.00
2022-08-17T23:06:12.683Z,100.00
2022-08-17T23:09:05.195Z,100.00
2022-08-17T23:11:59.646Z,100.00
2022-08-17T23:14:52.480Z,100.00
2022-08-17T23:17:43.152Z,100.00
2022-08-17T23:20:41.761Z,100.00
2022-08-17T23:23:31.325Z,100.00
2022-08-17T23:26:22.376Z,100.00
2022-08-17T23:29:11.713Z,100.00
2022-08-17T23:32:02.640Z,100.00
2022-08-17T23:34:52.622Z,100.00
2022-08-17T23:37:42.415Z,100.00
2022-08-17T23:40:32.497Z,100.00
2022-08-17T23:43:24.705Z,100.00
2022-08-17T23:46:18.432Z,100.00
2022-08-17T23:49:08.131Z,100.00
2022-08-17T23:51:57.784Z,100.00
2022-08-17T23:54:48.817Z,100.00
2022-08-17T23:57:39.599Z,100.00
